Time;durP1;ratioP1;P1;durP2;ratioP2;P2;SDS_P1;SDS_P2;PMS_P1;PMS_P2;Temp;Humidity;BMP_temperature;BMP_pressure;BME280_temperature;BME280_humidity;BME280_pressure;Samples;Min_cycle;Max_cycle;Signal;HPM_P1;HPM_P2
2023/09/24 00:01:23;;;;;;;0.00;0.00;;;13.80;99.90;;;;;;5060234;28;20588;-75
2023/09/24 00:03:49;;;;;;;0.00;0.00;;;13.80;99.90;;;;;;5059300;28;20032;-81
2023/09/24 00:06:16;;;;;;;0.10;0.10;;;13.80;99.90;;;;;;5059888;28;20498;-77
2023/09/24 00:08:41;;;;;;;0.00;0.00;;;13.80;99.90;;;;;;5075756;28;20044;-76
2023/09/24 00:11:08;;;;;;;0.00;0.00;;;13.80;99.90;;;;;;5041786;28;20253;-76
2023/09/24 00:13:34;;;;;;;0.00;0.00;;;13.80;99.90;;;;;;5059907;28;20025;-75
2023/09/24 00:16:06;;;;;;;0.00;0.00;;;13.70;99.90;;;;;;5060201;28;20522;-79
2023/09/24 00:18:36;;;;;;;0.05;0.05;;;13.70;99.90;;;;;;5059961;28;20055;-80
2023/09/24 00:21:03;;;;;;;0.10;0.10;;;13.70;99.90;;;;;;5059486;28;20017;-76
2023/09/24 00:23:29;;;;;;;0.10;0.10;;;13.70;99.90;;;;;;5041415;28;20433;-77
2023/09/24 00:25:57;;;;;;;0.00;0.00;;;13.70;99.90;;;;;;5061716;28;20024;-76
2023/09/24 00:28:24;;;;;;;0.00;0.00;;;13.70;99.90;;;;;;5060890;28;20048;-77
2023/09/24 00:30:51;;;;;;;0.10;0.10;;;13.70;99.90;;;;;;5060220;28;20045;-76
2023/09/24 00:33:19;;;;;;;0.10;0.10;;;13.80;99.90;;;;;;5061804;28;20142;-78
2023/09/24 00:35:46;;;;;;;0.08;0.08;;;13.80;99.90;;;;;;5062272;28;20505;-76
2023/09/24 00:38:13;;;;;;;0.10;0.10;;;13.80;99.90;;;;;;5062012;28;20329;-76
2023/09/24 00:40:39;;;;;;;0.00;0.00;;;13.70;99.90;;;;;;5060198;28;20246;-77
2023/09/24 00:43:31;;;;;;;0.10;0.10;;;13.70;99.90;;;;;;5060187;28;20037;-76
2023/09/24 00:46:01;;;;;;;0.10;0.10;;;13.70;99.90;;;;;;5045066;28;20021;-76
2023/09/24 00:48:29;;;;;;;0.10;0.10;;;13.70;99.90;;;;;;5063596;28;20025;-76
2023/09/24 00:50:58;;;;;;;0.10;0.10;;;13.80;99.90;;;;;;5063697;28;20462;-77
2023/09/24 00:53:31;;;;;;;0.10;0.10;;;13.80;99.90;;;;;;5062201;28;20029;-77
2023/09/24 00:55:58;;;;;;;0.10;0.10;;;13.70;99.90;;;;;;5044902;28;20021;-77
2023/09/24 00:58:28;;;;;;;0.00;0.00;;;13.70;99.90;;;;;;5043117;28;20021;-76
2023/09/24 01:00:55;;;;;;;0.00;0.00;;;13.70;99.90;;;;;;5042960;28;20378;-76
2023/09/24 01:03:26;;;;;;;0.10;0.10;;;13.70;99.90;;;;;;5040939;28;20161;-75
2023/09/24 01:05:52;;;;;;;0.10;0.10;;;13.70;99.90;;;;;;5060362;28;20224;-76
2023/09/24 01:08:24;;;;;;;0.00;0.00;;;13.80;99.90;;;;;;5025366;28;20056;-74
2023/09/24 01:10:51;;;;;;;0.10;0.10;;;13.80;99.90;;;;;;5059650;28;20027;-75
2023/09/24 01:13:23;;;;;;;0.10;0.10;;;13.80;99.90;;;;;;5042115;28;20332;-76
2023/09/24 01:15:49;;;;;;;0.00;0.00;;;13.80;99.90;;;;;;5058764;28;20536;-78
2023/09/24 01:18:19;;;;;;;0.10;0.10;;;13.80;99.90;;;;;;5059598;28;20367;-75
2023/09/24 01:20:47;;;;;;;1.20;1.20;;;13.90;99.90;;;;;;5041803;28;20310;-77
2023/09/24 01:23:14;;;;;;;0.95;0.95;;;13.80;99.90;;;;;;5059852;28;20084;-77
2023/09/24 01:25:42;;;;;;;0.10;0.10;;;13.80;99.90;;;;;;5059531;28;20051;-77
2023/09/24 01:28:08;;;;;;;2.15;2.05;;;13.80;99.90;;;;;;5059407;28;20051;-76
2023/09/24 01:30:36;;;;;;;0.28;0.28;;;13.80;99.90;;;;;;5060083;28;20021;-77
2023/09/24 01:33:02;;;;;;;0.00;0.00;;;13.80;99.90;;;;;;5059226;28;20428;-78
2023/09/24 01:35:29;;;;;;;1.35;1.35;;;13.90;99.90;;;;;;5059525;28;20329;-76
2023/09/24 01:38:00;;;;;;;0.10;0.10;;;13.90;99.90;;;;;;5059229;28;20097;-76
2023/09/24 01:40:33;;;;;;;0.10;0.10;;;14.00;99.90;;;;;;5059551;28;20024;-77
2023/09/24 01:43:07;;;;;;;0.00;0.00;;;14.00;99.90;;;;;;5059577;28;20412;-76
2023/09/24 01:45:38;;;;;;;0.10;0.10;;;14.00;99.90;;;;;;5059945;28;20032;-77
2023/09/24 01:48:05;;;;;;;0.00;0.00;;;16.40;99.90;;;;;;5042567;28;20682;-78
2023/09/24 01:50:36;;;;;;;0.20;0.20;;;13.80;99.90;;;;;;5060604;28;20013;-77
2023/09/24 01:53:04;;;;;;;0.10;0.10;;;14.10;99.90;;;;;;5041359;28;20063;-76
2023/09/24 01:55:31;;;;;;;0.10;0.10;;;14.10;99.90;;;;;;5059019;28;20225;-77
2023/09/24 01:57:58;;;;;;;0.08;0.08;;;14.20;99.90;;;;;;5059184;28;20017;-76
2023/09/24 02:00:25;;;;;;;0.10;0.10;;;16.90;99.90;;;;;;5059075;28;20028;-77
2023/09/24 02:02:52;;;;;;;0.10;0.10;;;14.20;99.90;;;;;;5074135;28;20032;-77
2023/09/24 02:05:22;;;;;;;0.00;0.00;;;14.20;99.90;;;;;;5041011;28;20032;-77
2023/09/24 02:07:49;;;;;;;0.10;0.10;;;14.20;99.90;;;;;;5042129;28;20043;-78
2023/09/24 02:10:19;;;;;;;1.85;1.75;;;14.20;99.90;;;;;;5059628;28;20020;-77
2023/09/24 02:12:46;;;;;;;0.10;0.10;;;14.20;99.90;;;;;;5075455;28;20268;-76
2023/09/24 02:15:17;;;;;;;0.35;0.35;;;14.70;99.90;;;;;;5059437;28;20100;-77
2023/09/24 02:17:49;;;;;;;0.10;0.10;;;14.60;99.90;;;;;;5042040;28;20016;-77
2023/09/24 02:20:24;;;;;;;0.20;0.20;;;14.10;99.90;;;;;;5042896;28;20071;-77
2023/09/24 02:22:52;;;;;;;0.10;0.10;;;14.00;99.90;;;;;;5042157;28;20332;-78
2023/09/24 02:25:21;;;;;;;0.10;0.10;;;14.00;99.90;;;;;;5041507;28;20028;-77
2023/09/24 02:27:53;;;;;;;0.00;0.00;;;13.90;99.90;;;;;;5074187;28;20344;-77
2023/09/24 02:30:20;;;;;;;0.10;0.10;;;13.90;99.90;;;;;;5058612;28;20036;-77
2023/09/24 02:32:47;;;;;;;0.10;0.10;;;13.80;99.90;;;;;;5041007;28;20024;-77
2023/09/24 02:35:13;;;;;;;0.10;0.10;;;13.80;99.90;;;;;;5058319;28;20017;-76
2023/09/24 02:37:40;;;;;;;0.10;0.10;;;13.70;99.90;;;;;;5059538;28;20201;-77
2023/09/24 02:40:11;;;;;;;0.00;0.00;;;13.60;99.90;;;;;;5058616;28;20033;-76
2023/09/24 02:42:37;;;;;;;0.10;0.10;;;13.60;99.90;;;;;;5040481;28;20025;-76
2023/09/24 02:45:04;;;;;;;0.10;0.10;;;13.50;99.90;;;;;;5058853;28;20217;-76
2023/09/24 02:47:32;;;;;;;0.00;0.00;;;13.40;99.90;;;;;;5058864;28;20036;-77
2023/09/24 02:49:58;;;;;;;0.00;0.00;;;16.70;99.90;;;;;;5058220;28;20089;-77
2023/09/24 02:52:23;;;;;;;0.00;0.00;;;13.30;99.90;;;;;;5058624;28;20107;-76
2023/09/24 02:54:49;;;;;;;0.03;0.03;;;13.30;99.90;;;;;;5058089;28;20104;-76
2023/09/24 02:57:15;;;;;;;0.00;0.00;;;13.20;99.90;;;;;;5058381;28;20028;-76
2023/09/24 02:59:41;;;;;;;0.00;0.00;;;13.30;99.90;;;;;;5058787;28;20024;-76
2023/09/24 03:02:07;;;;;;;0.10;0.10;;;13.20;99.90;;;;;;5059761;28;20321;-77
2023/09/24 03:04:34;;;;;;;0.00;0.00;;;13.20;99.90;;;;;;5058689;28;20582;-77
2023/09/24 03:07:00;;;;;;;0.10;0.10;;;13.20;99.90;;;;;;5058364;28;20020;-77
2023/09/24 03:09:25;;;;;;;0.10;0.10;;;13.10;99.90;;;;;;5059335;28;20378;-77
2023/09/24 03:11:51;;;;;;;0.10;0.10;;;13.20;99.90;;;;;;5059188;28;20726;-76
2023/09/24 03:14:18;;;;;;;0.00;0.00;;;13.10;99.90;;;;;;5057747;28;20024;-76
2023/09/24 03:16:43;;;;;;;1.00;1.00;;;13.10;99.90;;;;;;5058520;28;20047;-76
2023/09/24 03:19:09;;;;;;;0.10;0.10;;;13.00;99.90;;;;;;5058626;28;20384;-77
2023/09/24 03:21:35;;;;;;;0.10;0.10;;;13.00;99.90;;;;;;5057995;28;20024;-76
2023/09/24 03:24:02;;;;;;;0.10;0.10;;;13.00;99.90;;;;;;5058632;28;20336;-76
2023/09/24 03:26:29;;;;;;;0.10;0.10;;;12.70;99.90;;;;;;5058688;28;20043;-76
2023/09/24 03:28:55;;;;;;;0.00;0.00;;;13.00;99.90;;;;;;5059349;28;20122;-76
2023/09/24 03:31:22;;;;;;;0.10;0.10;;;13.00;99.90;;;;;;5059319;28;20029;-76
2023/09/24 03:33:49;;;;;;;3.70;3.50;;;13.00;99.90;;;;;;5025315;28;20024;-76
2023/09/24 03:36:16;;;;;;;0.10;0.10;;;13.00;99.90;;;;;;5061400;28;20213;-75
2023/09/24 03:38:42;;;;;;;0.00;0.00;;;12.90;99.90;;;;;;5062004;28;20050;-76
2023/09/24 03:41:10;;;;;;;0.10;0.10;;;12.80;99.90;;;;;;5063898;28;20510;-76
2023/09/24 03:43:36;;;;;;;0.10;0.10;;;12.60;99.90;;;;;;5030491;28;20029;-76
2023/09/24 03:46:02;;;;;;;0.10;0.10;;;12.50;99.90;;;;;;5085913;28;20055;-77
2023/09/24 03:48:28;;;;;;;0.10;0.10;;;12.50;99.90;;;;;;5069751;28;20036;-77
2023/09/24 03:50:55;;;;;;;0.00;0.00;;;12.50;99.90;;;;;;5066871;28;20012;-78
2023/09/24 03:53:21;;;;;;;0.10;0.10;;;12.50;99.90;;;;;;5069609;28;20284;-76
2023/09/24 03:55:48;;;;;;;0.00;0.00;;;12.50;99.90;;;;;;5067929;28;20020;-76
2023/09/24 03:58:17;;;;;;;0.10;0.10;;;13.40;99.90;;;;;;5066600;28;20096;-77
2023/09/24 04:00:44;;;;;;;0.10;0.10;;;14.00;99.90;;;;;;5071617;28;20035;-77
2023/09/24 04:03:10;;;;;;;0.20;0.20;;;12.60;99.90;;;;;;5071109;28;20522;-76
2023/09/24 04:05:39;;;;;;;3.60;3.28;;;12.60;99.90;;;;;;5050867;28;20036;-77
2023/09/24 04:08:05;;;;;;;0.30;0.30;;;12.60;99.90;;;;;;5067613;28;20076;-77
2023/09/24 04:10:30;;;;;;;0.73;0.73;;;12.60;99.90;;;;;;5066190;28;20572;-77
2023/09/24 04:13:00;;;;;;;0.00;0.00;;;12.60;99.90;;;;;;5046463;28;20494;-76
2023/09/24 04:15:28;;;;;;;0.10;0.10;;;12.60;99.90;;;;;;5063093;28;20020;-76
2023/09/24 04:17:56;;;;;;;0.10;0.10;;;12.50;99.90;;;;;;5062976;28;20073;-76
2023/09/24 04:20:23;;;;;;;0.10;0.10;;;12.50;99.90;;;;;;5062975;28;20060;-77
2023/09/24 04:22:49;;;;;;;0.10;0.10;;;12.40;99.90;;;;;;5063368;28;20020;-78
2023/09/24 04:25:22;;;;;;;0.00;0.00;;;12.30;99.90;;;;;;5063769;28;20470;-78
2023/09/24 04:27:49;;;;;;;0.05;0.05;;;12.30;99.90;;;;;;5065157;28;20690;-76
2023/09/24 04:30:16;;;;;;;0.10;0.10;;;12.30;99.90;;;;;;5063882;28;20031;-77
2023/09/24 04:32:51;;;;;;;0.10;0.10;;;12.30;99.90;;;;;;5064451;28;20032;-76
2023/09/24 04:35:21;;;;;;;0.00;0.00;;;12.20;99.90;;;;;;5063785;28;20027;-77
2023/09/24 04:37:51;;;;;;;0.10;0.10;;;12.30;99.90;;;;;;5064175;28;20021;-77
2023/09/24 04:40:18;;;;;;;0.03;0.03;;;12.10;99.90;;;;;;5064720;28;20049;-77
2023/09/24 04:42:45;;;;;;;0.00;0.00;;;12.00;99.90;;;;;;5049326;28;20100;-76
2023/09/24 04:45:12;;;;;;;0.00;0.00;;;12.00;99.90;;;;;;5066652;28;20024;-76
2023/09/24 04:47:40;;;;;;;0.00;0.00;;;10.20;99.90;;;;;;5067066;28;20036;-76
2023/09/24 04:50:07;;;;;;;0.00;0.00;;;12.10;99.90;;;;;;5065959;28;20025;-77
2023/09/24 04:52:35;;;;;;;0.05;0.05;;;12.10;99.90;;;;;;5048774;28;20025;-77
2023/09/24 04:55:01;;;;;;;0.10;0.10;;;12.00;99.90;;;;;;5067380;28;20031;-77
2023/09/24 04:57:27;;;;;;;0.00;0.00;;;12.10;99.90;;;;;;5068080;28;20016;-78
2023/09/24 04:59:54;;;;;;;0.00;0.00;;;12.20;99.90;;;;;;5065656;28;20313;-77
2023/09/24 05:02:23;;;;;;;0.00;0.00;;;13.10;99.90;;;;;;5082588;28;20020;-76
2023/09/24 05:04:49;;;;;;;0.00;0.00;;;12.10;99.90;;;;;;5072208;28;20052;-76
2023/09/24 05:07:16;;;;;;;0.00;0.00;;;12.10;99.90;;;;;;5070067;28;20392;-77
2023/09/24 05:09:43;;;;;;;0.10;0.10;;;12.10;99.90;;;;;;5069503;28;20020;-76
2023/09/24 05:12:10;;;;;;;0.10;0.10;;;12.00;99.90;;;;;;5068501;28;20044;-79
2023/09/24 05:14:38;;;;;;;0.10;0.10;;;11.50;99.90;;;;;;5073188;28;20024;-76
2023/09/24 05:17:03;;;;;;;0.00;0.00;;;12.10;99.90;;;;;;5054305;28;20037;-77
2023/09/24 05:19:30;;;;;;;0.10;0.10;;;;;;;;;;5055682;28;20040;-77
2023/09/24 05:21:56;;;;;;;0.00;0.00;;;12.20;99.90;;;;;;5055957;28;20025;-77
2023/09/24 05:24:24;;;;;;;0.10;0.10;;;12.20;99.90;;;;;;5050476;28;20041;-77
2023/09/24 05:26:51;;;;;;;0.10;0.10;;;12.20;99.90;;;;;;5068124;28;20039;-77
2023/09/24 05:29:16;;;;;;;0.10;0.10;;;10.80;99.90;;;;;;5065092;28;20040;-77
2023/09/24 05:31:42;;;;;;;0.10;0.10;;;12.20;99.90;;;;;;5065636;28;20371;-76
2023/09/24 05:34:08;;;;;;;0.00;0.00;;;12.20;99.90;;;;;;5065116;28;20183;-77
2023/09/24 05:36:35;;;;;;;0.10;0.10;;;12.20;99.90;;;;;;5047997;28;20063;-76
2023/09/24 05:39:01;;;;;;;0.10;0.10;;;12.30;99.90;;;;;;5066210;28;20285;-77
2023/09/24 05:41:27;;;;;;;0.05;0.05;;;12.30;99.90;;;;;;5048356;28;20036;-77
2023/09/24 05:43:54;;;;;;;0.13;0.13;;;12.30;99.90;;;;;;5065180;28;20023;-77
2023/09/24 05:46:20;;;;;;;0.00;0.00;;;;;;;;;;5062393;28;20278;-77
2023/09/24 05:48:46;;;;;;;0.10;0.10;;;12.30;99.90;;;;;;5049329;28;20044;-76
2023/09/24 05:51:16;;;;;;;0.10;0.10;;;12.20;99.90;;;;;;5067723;28;20020;-78
2023/09/24 05:53:46;;;;;;;0.00;0.00;;;12.40;99.90;;;;;;5068308;28;20028;-77
2023/09/24 05:56:12;;;;;;;1.83;1.77;;;12.50;99.90;;;;;;5063813;28;20048;-76
2023/09/24 05:58:39;;;;;;;0.08;0.08;;;12.60;99.90;;;;;;5068012;28;20515;-77
2023/09/24 06:01:06;;;;;;;0.00;0.00;;;13.00;99.90;;;;;;5047820;28;20454;-76
2023/09/24 06:03:32;;;;;;;0.00;0.00;;;12.70;99.90;;;;;;5063548;28;20089;-77
2023/09/24 06:06:00;;;;;;;0.10;0.10;;;12.80;99.90;;;;;;5080254;28;20029;-77
2023/09/24 06:08:25;;;;;;;3.90;3.63;;;12.90;99.90;;;;;;5062903;28;20112;-77
2023/09/24 06:10:52;;;;;;;0.10;0.10;;;13.00;99.90;;;;;;5066961;28;20444;-77
2023/09/24 06:13:18;;;;;;;0.10;0.10;;;13.20;99.90;;;;;;5064771;28;20027;-78
2023/09/24 06:15:44;;;;;;;1.27;1.27;;;13.30;99.90;;;;;;5068468;28;20076;-76
2023/09/24 06:18:11;;;;;;;0.00;0.00;;;13.40;99.90;;;;;;5032674;28;20119;-79
2023/09/24 06:20:43;;;;;;;0.10;0.10;;;13.50;99.90;;;;;;5060752;28;20517;-76
2023/09/24 06:23:10;;;;;;;0.10;0.10;;;13.60;99.90;;;;;;5047712;28;20089;-77
2023/09/24 06:25:39;;;;;;;0.10;0.10;;;14.10;99.90;;;;;;5066989;28;20017;-77
2023/09/24 06:28:09;;;;;;;0.10;0.10;;;13.60;99.90;;;;;;5029056;28;20490;-77
2023/09/24 06:30:36;;;;;;;0.63;0.63;;;13.60;99.90;;;;;;5041886;28;20040;-77
2023/09/24 06:33:07;;;;;;;0.10;0.10;;;13.80;99.90;;;;;;5040251;28;20025;-77
2023/09/24 06:35:37;;;;;;;0.05;0.05;;;13.80;99.90;;;;;;5048514;28;20367;-77
2023/09/24 06:38:04;;;;;;;0.10;0.10;;;13.80;99.90;;;;;;5043389;28;20020;-77
2023/09/24 06:40:33;;;;;;;2.22;2.13;;;14.40;99.90;;;;;;5046990;28;20032;-79
2023/09/24 06:42:59;;;;;;;0.00;0.00;;;15.20;99.90;;;;;;5047505;28;20044;-77
2023/09/24 06:45:25;;;;;;;0.00;0.00;;;14.10;99.90;;;;;;5040874;28;20283;-77
2023/09/24 06:47:52;;;;;;;0.10;0.10;;;;;;;;;;5041769;28;20188;-77
2023/09/24 06:50:17;;;;;;;0.10;0.10;;;14.30;99.90;;;;;;5041621;28;20586;-77
2023/09/24 06:52:43;;;;;;;0.00;0.00;;;14.30;99.90;;;;;;5041488;28;20105;-77
2023/09/24 06:55:10;;;;;;;0.10;0.10;;;14.30;99.90;;;;;;5041884;28;20726;-77
2023/09/24 06:57:36;;;;;;;0.10;0.10;;;14.60;99.90;;;;;;5039666;28;20116;-77
2023/09/24 07:00:08;;;;;;;0.10;0.10;;;14.60;99.90;;;;;;5045384;28;20029;-77
2023/09/24 07:02:36;;;;;;;0.00;0.00;;;14.80;99.90;;;;;;5041452;28;20124;-77
2023/09/24 07:05:05;;;;;;;0.00;0.00;;;14.80;99.90;;;;;;5041616;28;20094;-77
2023/09/24 07:07:30;;;;;;;0.10;0.10;;;14.80;99.90;;;;;;5040545;28;20032;-77
2023/09/24 07:09:59;;;;;;;0.00;0.00;;;14.80;99.90;;;;;;5038833;28;20029;-76
2023/09/24 07:12:26;;;;;;;0.38;0.38;;;14.30;99.90;;;;;;5039951;28;20429;-79
2023/09/24 07:14:52;;;;;;;0.00;0.00;;;14.80;99.90;;;;;;5041505;28;20021;-76
2023/09/24 07:17:17;;;;;;;0.00;0.00;;;14.90;99.90;;;;;;5043013;28;20036;-79
2023/09/24 07:19:45;;;;;;;0.00;0.00;;;15.10;99.90;;;;;;5041703;28;20302;-86
2023/09/24 07:22:11;;;;;;;0.00;0.00;;;15.10;99.90;;;;;;5043991;28;20021;-79
2023/09/24 07:24:37;;;;;;;0.00;0.00;;;15.20;99.90;;;;;;5045484;28;20047;-79
2023/09/24 07:27:05;;;;;;;0.00;0.00;;;15.30;99.90;;;;;;5044210;28;20056;-76
2023/09/24 07:29:31;;;;;;;1.58;1.48;;;15.40;99.90;;;;;;5061175;28;20051;-75
2023/09/24 07:31:58;;;;;;;0.20;0.20;;;15.20;99.90;;;;;;5065230;28;20025;-77
2023/09/24 07:34:24;;;;;;;2.58;2.38;;;15.20;99.90;;;;;;5066964;28;20021;-77
2023/09/24 07:36:50;;;;;;;0.10;0.10;;;14.50;99.90;;;;;;5072324;28;20027;-78
2023/09/24 07:39:16;;;;;;;0.03;0.03;;;15.20;99.90;;;;;;5051855;28;20074;-78
2023/09/24 07:41:43;;;;;;;0.08;0.08;;;15.80;99.90;;;;;;5066746;28;20024;-76
2023/09/24 07:44:08;;;;;;;0.20;0.20;;;15.40;99.90;;;;;;5049032;28;20032;-77
2023/09/24 07:46:34;;;;;;;2.40;2.30;;;15.40;99.90;;;;;;5068256;28;20024;-77
2023/09/24 07:49:05;;;;;;;7.10;6.70;;;15.40;99.90;;;;;;5066668;28;20036;-77
2023/09/24 07:51:31;;;;;;;0.10;0.10;;;16.10;99.90;;;;;;5080186;28;20021;-78
2023/09/24 07:54:00;;;;;;;0.00;0.00;;;15.50;99.90;;;;;;5069195;28;20032;-77
2023/09/24 07:56:25;;;;;;;0.10;0.10;;;15.60;99.90;;;;;;5069647;28;20020;-81
2023/09/24 07:58:52;;;;;;;0.13;0.13;;;15.60;99.90;;;;;;5064432;28;20544;-77
2023/09/24 08:01:21;;;;;;;0.00;0.00;;;15.60;99.90;;;;;;5070209;28;20024;-76
2023/09/24 08:03:47;;;;;;;0.00;0.00;;;15.20;99.90;;;;;;5064471;28;20313;-77
2023/09/24 08:06:14;;;;;;;0.10;0.10;;;15.60;99.90;;;;;;5069451;28;20027;-77
2023/09/24 08:08:41;;;;;;;0.05;0.05;;;15.70;99.90;;;;;;5069590;28;20296;-82
2023/09/24 08:11:08;;;;;;;0.80;0.80;;;15.80;99.90;;;;;;5066986;28;20236;-78
2023/09/24 08:13:34;;;;;;;0.00;0.00;;;15.90;99.90;;;;;;5063019;28;20306;-80
2023/09/24 08:16:01;;;;;;;0.00;0.00;;;16.10;99.90;;;;;;5065110;28;20021;-77
2023/09/24 08:18:27;;;;;;;0.08;0.08;;;16.10;99.90;;;;;;5066551;28;20548;-76
2023/09/24 08:20:53;;;;;;;0.43;0.43;;;16.20;99.90;;;;;;5047232;28;20052;-77
2023/09/24 08:23:20;;;;;;;0.00;0.00;;;16.20;99.90;;;;;;5065222;28;20367;-77
2023/09/24 08:25:48;;;;;;;0.45;0.45;;;16.30;99.90;;;;;;5063779;28;20016;-77
2023/09/24 08:28:14;;;;;;;0.00;0.00;;;16.40;99.90;;;;;;5065026;28;20044;-80
2023/09/24 08:30:40;;;;;;;0.00;0.00;;;16.40;99.90;;;;;;5049466;28;20020;-77
2023/09/24 08:33:08;;;;;;;0.00;0.00;;;13.60;99.90;;;;;;5064154;28;20115;-77
2023/09/24 08:35:39;;;;;;;0.00;0.00;;;16.40;99.90;;;;;;5069260;28;20016;-84
2023/09/24 08:38:05;;;;;;;0.10;0.10;;;16.40;99.90;;;;;;5044466;28;20017;-77
2023/09/24 08:40:32;;;;;;;0.10;0.10;;;16.30;99.90;;;;;;5061637;28;20012;-77
2023/09/24 08:42:58;;;;;;;0.00;0.00;;;16.40;99.90;;;;;;5062494;28;20024;-77
2023/09/24 08:45:29;;;;;;;0.00;0.00;;;16.50;99.90;;;;;;5044276;28;20032;-77
2023/09/24 08:48:00;;;;;;;0.10;0.10;;;16.60;99.90;;;;;;5043471;28;20037;-77
2023/09/24 08:50:26;;;;;;;0.10;0.10;;;16.80;99.90;;;;;;5045107;28;20020;-76
2023/09/24 08:52:57;;;;;;;0.00;0.00;;;16.50;99.90;;;;;;5065751;28;20024;-76
2023/09/24 08:55:23;;;;;;;0.00;0.00;;;16.80;99.90;;;;;;5063925;28;20051;-77
2023/09/24 08:57:50;;;;;;;0.20;0.20;;;16.70;99.90;;;;;;5064301;28;20024;-80
2023/09/24 09:00:16;;;;;;;0.10;0.10;;;16.60;99.90;;;;;;5060403;28;20121;-80
2023/09/24 09:02:45;;;;;;;0.10;0.10;;;16.60;99.90;;;;;;5044111;28;20070;-83
2023/09/24 09:05:20;;;;;;;0.00;0.00;;;16.60;99.90;;;;;;5062013;28;20099;-77
2023/09/24 09:08:01;;;;;;;0.00;0.00;;;16.60;99.90;;;;;;5062599;28;20047;-77
2023/09/24 09:10:31;;;;;;;0.00;0.00;;;16.60;99.90;;;;;;5043520;28;20326;-79
2023/09/24 09:13:18;;;;;;;0.10;0.10;;;16.60;99.90;;;;;;5047198;28;20036;-76
2023/09/24 09:15:46;;;;;;;0.10;0.10;;;16.30;99.90;;;;;;5044416;28;20035;-76
2023/09/24 09:18:24;;;;;;;0.10;0.10;;;16.30;99.90;;;;;;5048672;28;20031;-75
2023/09/24 09:20:51;;;;;;;0.47;0.47;;;16.40;99.90;;;;;;5046296;28;20063;-78
2023/09/24 09:23:41;;;;;;;0.00;0.00;;;16.40;99.90;;;;;;5050279;28;20063;-81
2023/09/24 09:26:08;;;;;;;0.00;0.00;;;16.40;99.90;;;;;;5069275;28;20017;-78
2023/09/24 09:28:40;;;;;;;0.00;0.00;;;16.40;99.90;;;;;;5070310;28;20064;-77
2023/09/24 09:31:11;;;;;;;0.00;0.00;;;16.40;99.90;;;;;;5072542;28;20304;-78
2023/09/24 09:33:41;;;;;;;0.10;0.10;;;16.20;99.90;;;;;;5071701;28;20664;-80
2023/09/24 09:36:27;;;;;;;0.25;0.25;;;16.30;99.90;;;;;;5052017;28;20517;-78
2023/09/24 09:38:54;;;;;;;0.00;0.00;;;16.30;99.90;;;;;;5050849;28;20305;-78
2023/09/24 09:41:28;;;;;;;0.00;0.00;;;13.30;99.90;;;;;;5072104;28;20089;-77
2023/09/24 09:43:56;;;;;;;0.10;0.10;;;16.30;99.90;;;;;;5064512;28;20021;-77
2023/09/24 09:46:23;;;;;;;0.00;0.00;;;16.60;99.90;;;;;;5069644;28;20027;-77
2023/09/24 09:49:06;;;;;;;0.20;0.20;;;16.60;99.90;;;;;;5048343;28;20048;-77
2023/09/24 09:51:54;;;;;;;0.00;0.00;;;16.30;99.90;;;;;;5069596;28;20058;-77
2023/09/24 09:54:22;;;;;;;0.00;0.00;;;16.30;99.90;;;;;;5069183;28;20033;-75
2023/09/24 09:56:54;;;;;;;0.10;0.10;;;16.30;99.90;;;;;;5063038;28;20213;-83
2023/09/24 09:59:22;;;;;;;0.35;0.35;;;16.10;99.90;;;;;;5048575;28;20025;-79
2023/09/24 10:01:48;;;;;;;0.00;0.00;;;16.20;99.90;;;;;;5068151;28;20104;-80
2023/09/24 10:04:14;;;;;;;0.28;0.28;;;16.20;99.90;;;;;;5064518;28;20032;-76
2023/09/24 10:06:43;;;;;;;0.38;0.38;;;16.30;99.90;;;;;;5064765;28;20107;-78
2023/09/24 10:09:34;;;;;;;0.00;0.00;;;19.10;99.90;;;;;;5065926;28;20049;-76
2023/09/24 10:12:06;;;;;;;0.00;0.00;;;16.50;99.90;;;;;;5050608;28;20115;-81
2023/09/24 10:14:37;;;;;;;0.10;0.10;;;16.40;99.90;;;;;;5060287;28;20450;-77
2023/09/24 10:17:24;;;;;;;0.82;0.82;;;16.70;99.90;;;;;;5060001;28;20151;-81
2023/09/24 10:19:59;;;;;;;0.00;0.00;;;16.90;99.90;;;;;;5042518;28;20025;-82
2023/09/24 10:22:32;;;;;;;0.10;0.10;;;17.00;99.90;;;;;;5060304;28;20501;-81
2023/09/24 10:24:59;;;;;;;;;;;19.20;99.90;;;;;;5061857;28;20020;-80
2023/09/24 10:27:31;;;;;;;0.10;0.10;;;17.00;99.90;;;;;;5063422;28;19939;-79
2023/09/24 10:29:57;;;;;;;0.00;0.00;;;17.00;99.90;;;;;;5041806;28;20090;-76
2023/09/24 10:32:25;;;;;;;0.00;0.00;;;17.10;99.90;;;;;;5042102;28;20029;-79
2023/09/24 10:34:54;;;;;;;0.00;0.00;;;17.10;99.90;;;;;;5059751;28;20028;-77
2023/09/24 10:37:20;;;;;;;0.00;0.00;;;17.20;99.90;;;;;;5045249;28;20079;-76
2023/09/24 10:40:19;;;;;;;0.00;0.00;;;17.30;99.90;;;;;;5066433;28;20017;-76
2023/09/24 10:43:15;;;;;;;0.00;0.00;;;18.00;99.90;;;;;;5059845;28;20036;-77
2023/09/24 10:45:41;;;;;;;0.00;0.00;;;17.40;99.90;;;;;;5064778;28;20099;-76
2023/09/24 10:48:07;;;;;;;0.00;0.00;;;17.40;99.90;;;;;;5027527;28;20037;-76
2023/09/24 10:50:37;;;;;;;0.00;0.00;;;17.60;99.90;;;;;;5064450;28;20035;-79
2023/09/24 10:53:06;;;;;;;0.00;0.00;;;17.70;99.90;;;;;;5069287;28;20324;-74
2023/09/24 10:55:34;;;;;;;0.00;0.00;;;16.80;99.90;;;;;;5070358;28;20085;-77
2023/09/24 10:58:03;;;;;;;0.20;0.20;;;17.90;99.90;;;;;;5049414;28;20017;-77
2023/09/24 11:00:30;;;;;;;0.00;0.00;;;18.00;99.90;;;;;;5069284;28;20025;-79
2023/09/24 11:03:07;;;;;;;0.00;0.00;;;18.20;99.90;;;;;;5033281;28;20378;-76
2023/09/24 11:05:47;;;;;;;0.00;0.00;;;18.20;99.90;;;;;;5048122;28;20021;-81
2023/09/24 11:08:15;;;;;;;0.00;0.00;;;18.90;99.90;;;;;;5066367;28;20325;-84
2023/09/24 11:10:41;;;;;;;1.27;0.52;;;18.40;99.90;;;;;;5065019;28;20624;-80
2023/09/24 11:13:08;;;;;;;0.10;0.10;;;18.40;99.90;;;;;;5064345;28;20041;-77
2023/09/24 11:15:35;;;;;;;0.10;0.10;;;18.20;99.90;;;;;;5064637;28;20017;-78
2023/09/24 11:18:02;;;;;;;0.00;0.00;;;18.20;99.90;;;;;;5065184;28;20025;-76
2023/09/24 11:20:31;;;;;;;0.52;0.43;;;18.10;99.90;;;;;;5044901;28;20052;-77
2023/09/24 11:23:08;;;;;;;0.00;0.00;;;18.10;99.90;;;;;;5083257;28;20020;-87
2023/09/24 11:25:35;;;;;;;0.00;0.00;;;18.10;99.90;;;;;;5063949;28;20012;-83
2023/09/24 11:28:03;;;;;;;0.10;0.10;;;18.10;99.90;;;;;;5064212;28;20104;-82
2023/09/24 11:30:49;;;;;;;0.05;0.05;;;18.10;99.90;;;;;;5047533;28;20111;-81
2023/09/24 11:33:20;;;;;;;0.10;0.10;;;16.00;99.90;;;;;;5067861;28;20028;-76
2023/09/24 11:35:47;;;;;;;0.00;0.00;;;18.20;99.90;;;;;;5066151;28;20116;-84
2023/09/24 11:38:25;;;;;;;0.00;0.00;;;18.20;99.90;;;;;;5068281;28;20051;-82
2023/09/24 11:40:51;;;;;;;0.10;0.10;;;18.10;99.90;;;;;;5050086;28;20028;-79
2023/09/24 11:43:17;;;;;;;0.43;0.43;;;18.20;99.90;;;;;;5066330;28;20048;-76
2023/09/24 11:45:48;;;;;;;0.00;0.00;;;18.30;99.90;;;;;;5082431;28;20375;-79
2023/09/24 11:48:24;;;;;;;0.20;0.20;;;18.40;99.90;;;;;;5065056;28;20136;-77
2023/09/24 11:51:01;;;;;;;0.00;0.00;;;20.60;99.90;;;;;;5043441;28;20912;-75
2023/09/24 11:53:28;;;;;;;5.07;1.65;;;18.30;99.90;;;;;;5063342;28;20048;-77
2023/09/24 11:55:56;;;;;;;0.00;0.00;;;18.20;99.90;;;;;;5064289;28;20020;-77
2023/09/24 11:58:26;;;;;;;0.00;0.00;;;17.10;99.90;;;;;;5063903;28;20339;-76
2023/09/24 12:00:54;;;;;;;0.15;0.15;;;17.70;99.90;;;;;;5061585;28;20529;-77
2023/09/24 12:03:23;;;;;;;0.00;0.00;;;18.10;99.90;;;;;;5044515;28;20032;-75
2023/09/24 12:05:50;;;;;;;0.00;0.00;;;17.40;99.90;;;;;;5062469;28;20056;-76
2023/09/24 12:08:16;;;;;;;0.10;0.10;;;17.10;99.90;;;;;;5062118;28;20102;-77
2023/09/24 12:10:46;;;;;;;0.05;0.05;;;17.50;99.90;;;;;;5061576;28;20593;-74
2023/09/24 12:13:13;;;;;;;0.00;0.00;;;17.10;99.90;;;;;;5062548;28;20020;-76
2023/09/24 12:15:39;;;;;;;0.10;0.10;;;17.00;99.90;;;;;;5061659;28;20023;-76
2023/09/24 12:18:06;;;;;;;0.00;0.00;;;17.10;99.90;;;;;;5062495;28;20438;-74
2023/09/24 12:20:34;;;;;;;0.10;0.10;;;17.10;99.90;;;;;;5065563;28;20345;-77
2023/09/24 12:23:04;;;;;;;0.30;0.30;;;17.20;99.90;;;;;;5046269;28;20027;-76
2023/09/24 12:25:31;;;;;;;0.22;0.22;;;17.30;99.90;;;;;;5063421;28;20012;-77
2023/09/24 12:27:57;;;;;;;0.00;0.00;;;17.50;99.90;;;;;;5063057;28;20052;-80
2023/09/24 12:30:23;;;;;;;0.10;0.10;;;;;;;;;;5045219;28;20329;-76
2023/09/24 12:32:49;;;;;;;0.20;0.20;;;17.70;99.90;;;;;;5063300;28;20021;-77
2023/09/24 12:35:15;;;;;;;1.13;0.85;;;17.70;99.90;;;;;;5046768;28;20032;-76
2023/09/24 12:37:42;;;;;;;0.00;0.00;;;17.60;99.90;;;;;;5064380;28;20021;-77
2023/09/24 12:40:10;;;;;;;0.10;0.10;;;17.00;99.90;;;;;;5047378;28;20640;-74
2023/09/24 12:42:41;;;;;;;0.10;0.10;;;17.20;99.90;;;;;;5064829;28;20025;-76
2023/09/24 12:45:09;;;;;;;0.00;0.00;;;16.50;99.90;;;;;;5071352;28;20032;-79
2023/09/24 12:47:36;;;;;;;0.00;0.00;;;17.00;99.90;;;;;;5054136;28;20036;-85
2023/09/24 12:50:07;;;;;;;0.00;0.00;;;14.80;99.90;;;;;;5054264;28;20040;-76
2023/09/24 12:52:39;;;;;;;0.00;0.00;;;17.00;99.90;;;;;;5071011;28;20111;-77
2023/09/24 12:55:08;;;;;;;0.38;0.38;;;16.90;99.90;;;;;;5072723;28;20020;-79